Terminal Aerodrome Forecast
Issued by NWS Grand Junction, CO

Home | Current Version | Previous Version | Text Only | Print | Product List | Glossary On
Versions: 1 2 3 4 5 6 7 8 9 10 11 12 13 14 15 16 17 18 19 20 21 22 23 24 25 26 27 28 29 30 31 32 33 34 35 36 37 38 39 40 41 42 43 44 45 46 47 48 49 50
000
FTUS45 KGJT 041133
TAFGJT
TAF
KGJT 041133Z 0412/0512 35005KT P6SM -SN FEW040 BKN050
      TEMPO 0412/0415 P6SM NSW
     FM041500 02005KT P6SM SCT050
     FM041900 33006KT P6SM FEW080 FEW250
     FM050200 05005KT P6SM SKC
     FM050600 11006KT P6SM SKC=

USA.gov is the U.S. government's official web portal to all federal, state and local government web resources and services.